sensor_id;sensor_type;location;lat;lon;timestamp;P1;durP1;ratioP1;P2;durP2;ratioP2
21014;SDS011;19207;-23.482;-46.500;2023-09-30T00:01:34;33.30;;;13.00;;
21014;SDS011;19207;-23.482;-46.500;2023-09-30T00:04:21;27.13;;;13.02;;
21014;SDS011;19207;-23.482;-46.500;2023-09-30T00:07:07;32.85;;;13.80;;
21014;SDS011;19207;-23.482;-46.500;2023-09-30T00:09:54;30.52;;;13.82;;
21014;SDS011;19207;-23.482;-46.500;2023-09-30T00:12:42;30.62;;;13.68;;
21014;SDS011;19207;-23.482;-46.500;2023-09-30T00:15:29;34.92;;;13.88;;
21014;SDS011;19207;-23.482;-46.500;2023-09-30T00:18:16;40.28;;;13.23;;
21014;SDS011;19207;-23.482;-46.500;2023-09-30T00:21:03;30.80;;;13.13;;
21014;SDS011;19207;-23.482;-46.500;2023-09-30T00:23:51;33.45;;;14.27;;
21014;SDS011;19207;-23.482;-46.500;2023-09-30T00:26:38;37.25;;;13.93;;
21014;SDS011;19207;-23.482;-46.500;2023-09-30T00:29:25;33.60;;;13.52;;
21014;SDS011;19207;-23.482;-46.500;2023-09-30T00:32:12;36.80;;;13.20;;
21014;SDS011;19207;-23.482;-46.500;2023-09-30T00:35:02;31.02;;;13.20;;
21014;SDS011;19207;-23.482;-46.500;2023-09-30T00:37:49;41.17;;;13.90;;
21014;SDS011;19207;-23.482;-46.500;2023-09-30T00:40:36;35.47;;;14.27;;
21014;SDS011;19207;-23.482;-46.500;2023-09-30T00:43:23;32.55;;;13.05;;
21014;SDS011;19207;-23.482;-46.500;2023-09-30T00:46:26;37.40;;;14.05;;
21014;SDS011;19207;-23.482;-46.500;2023-09-30T00:49:13;34.45;;;14.10;;
21014;SDS011;19207;-23.482;-46.500;2023-09-30T00:52:02;45.63;;;14.45;;
21014;SDS011;19207;-23.482;-46.500;2023-09-30T00:54:49;39.30;;;14.32;;
21014;SDS011;19207;-23.482;-46.500;2023-09-30T00:57:37;39.15;;;14.15;;
21014;SDS011;19207;-23.482;-46.500;2023-09-30T01:00:24;39.75;;;14.32;;
21014;SDS011;19207;-23.482;-46.500;2023-09-30T01:03:11;42.15;;;15.07;;
21014;SDS011;19207;-23.482;-46.500;2023-09-30T01:05:59;46.72;;;16.05;;
21014;SDS011;19207;-23.482;-46.500;2023-09-30T01:08:46;43.80;;;16.83;;
21014;SDS011;19207;-23.482;-46.500;2023-09-30T01:11:33;37.53;;;14.43;;
21014;SDS011;19207;-23.482;-46.500;2023-09-30T01:14:26;37.58;;;14.30;;
21014;SDS011;19207;-23.482;-46.500;2023-09-30T01:17:14;32.33;;;14.68;;
21014;SDS011;19207;-23.482;-46.500;2023-09-30T01:20:01;42.55;;;14.55;;
21014;SDS011;19207;-23.482;-46.500;2023-09-30T01:22:56;31.85;;;13.75;;
21014;SDS011;19207;-23.482;-46.500;2023-09-30T01:25:43;40.90;;;13.45;;
21014;SDS011;19207;-23.482;-46.500;2023-09-30T01:28:30;39.70;;;14.75;;
21014;SDS011;19207;-23.482;-46.500;2023-09-30T01:31:17;31.05;;;13.62;;
21014;SDS011;19207;-23.482;-46.500;2023-09-30T01:34:04;31.52;;;13.25;;
21014;SDS011;19207;-23.482;-46.500;2023-09-30T01:36:52;29.35;;;13.68;;
21014;SDS011;19207;-23.482;-46.500;2023-09-30T01:39:39;26.08;;;13.75;;
21014;SDS011;19207;-23.482;-46.500;2023-09-30T01:42:26;29.30;;;13.55;;
21014;SDS011;19207;-23.482;-46.500;2023-09-30T01:45:13;29.30;;;12.90;;
21014;SDS011;19207;-23.482;-46.500;2023-09-30T01:48:00;26.48;;;12.75;;
21014;SDS011;19207;-23.482;-46.500;2023-09-30T01:50:47;34.35;;;12.45;;
21014;SDS011;19207;-23.482;-46.500;2023-09-30T01:53:34;24.90;;;12.23;;
21014;SDS011;19207;-23.482;-46.500;2023-09-30T01:56:21;25.30;;;11.65;;
21014;SDS011;19207;-23.482;-46.500;2023-09-30T01:59:08;25.65;;;11.27;;
21014;SDS011;19207;-23.482;-46.500;2023-09-30T02:01:54;21.62;;;11.18;;
21014;SDS011;19207;-23.482;-46.500;2023-09-30T02:04:42;22.52;;;10.75;;
21014;SDS011;19207;-23.482;-46.500;2023-09-30T02:07:29;17.23;;;9.43;;
21014;SDS011;19207;-23.482;-46.500;2023-09-30T02:10:15;25.95;;;11.25;;
21014;SDS011;19207;-23.482;-46.500;2023-09-30T02:13:03;21.15;;;10.27;;
21014;SDS011;19207;-23.482;-46.500;2023-09-30T02:15:51;21.60;;;9.80;;
21014;SDS011;19207;-23.482;-46.500;2023-09-30T02:18:42;19.65;;;9.30;;
21014;SDS011;19207;-23.482;-46.500;2023-09-30T02:21:32;19.30;;;9.43;;
21014;SDS011;19207;-23.482;-46.500;2023-09-30T02:24:21;18.00;;;10.32;;
21014;SDS011;19207;-23.482;-46.500;2023-09-30T02:27:08;21.77;;;10.45;;
21014;SDS011;19207;-23.482;-46.500;2023-09-30T02:29:54;19.25;;;10.70;;
21014;SDS011;19207;-23.482;-46.500;2023-09-30T02:32:42;17.95;;;10.70;;
21014;SDS011;19207;-23.482;-46.500;2023-09-30T02:35:31;19.83;;;9.75;;
21014;SDS011;19207;-23.482;-46.500;2023-09-30T02:38:18;19.10;;;9.15;;
21014;SDS011;19207;-23.482;-46.500;2023-09-30T02:41:06;18.60;;;8.88;;
21014;SDS011;19207;-23.482;-46.500;2023-09-30T02:43:52;17.58;;;9.23;;
21014;SDS011;19207;-23.482;-46.500;2023-09-30T02:46:39;19.40;;;9.25;;
21014;SDS011;19207;-23.482;-46.500;2023-09-30T02:49:26;18.62;;;10.13;;
21014;SDS011;19207;-23.482;-46.500;2023-09-30T02:52:13;21.92;;;11.70;;
21014;SDS011;19207;-23.482;-46.500;2023-09-30T02:55:00;26.58;;;11.90;;
21014;SDS011;19207;-23.482;-46.500;2023-09-30T02:57:47;27.00;;;10.32;;
21014;SDS011;19207;-23.482;-46.500;2023-09-30T03:00:37;17.50;;;8.93;;
21014;SDS011;19207;-23.482;-46.500;2023-09-30T03:03:23;14.85;;;7.50;;
21014;SDS011;19207;-23.482;-46.500;2023-09-30T03:06:11;15.23;;;7.45;;
21014;SDS011;19207;-23.482;-46.500;2023-09-30T03:08:57;22.92;;;8.90;;
21014;SDS011;19207;-23.482;-46.500;2023-09-30T03:11:45;20.35;;;11.02;;
21014;SDS011;19207;-23.482;-46.500;2023-09-30T03:14:31;20.45;;;10.00;;
21014;SDS011;19207;-23.482;-46.500;2023-09-30T03:17:20;13.48;;;8.50;;
21014;SDS011;19207;-23.482;-46.500;2023-09-30T03:20:10;24.70;;;9.02;;
21014;SDS011;19207;-23.482;-46.500;2023-09-30T03:22:59;23.52;;;7.80;;
21014;SDS011;19207;-23.482;-46.500;2023-09-30T03:25:49;16.40;;;7.37;;
21014;SDS011;19207;-23.482;-46.500;2023-09-30T03:28:36;17.40;;;7.03;;
21014;SDS011;19207;-23.482;-46.500;2023-09-30T03:31:23;17.33;;;7.40;;
21014;SDS011;19207;-23.482;-46.500;2023-09-30T03:34:10;15.95;;;6.70;;
21014;SDS011;19207;-23.482;-46.500;2023-09-30T03:36:57;16.60;;;7.85;;
21014;SDS011;19207;-23.482;-46.500;2023-09-30T03:39:46;20.90;;;7.95;;
21014;SDS011;19207;-23.482;-46.500;2023-09-30T03:42:34;18.17;;;9.07;;
21014;SDS011;19207;-23.482;-46.500;2023-09-30T03:45:21;23.05;;;10.80;;
21014;SDS011;19207;-23.482;-46.500;2023-09-30T03:48:09;25.90;;;10.80;;
21014;SDS011;19207;-23.482;-46.500;2023-09-30T03:50:56;20.75;;;10.02;;
21014;SDS011;19207;-23.482;-46.500;2023-09-30T03:53:44;20.48;;;9.77;;
21014;SDS011;19207;-23.482;-46.500;2023-09-30T03:56:31;19.08;;;9.85;;
21014;SDS011;19207;-23.482;-46.500;2023-09-30T03:59:17;19.80;;;11.00;;
21014;SDS011;19207;-23.482;-46.500;2023-09-30T04:02:04;27.85;;;12.75;;
21014;SDS011;19207;-23.482;-46.500;2023-09-30T04:04:51;22.90;;;11.65;;
21014;SDS011;19207;-23.482;-46.500;2023-09-30T04:07:40;18.77;;;10.88;;
21014;SDS011;19207;-23.482;-46.500;2023-09-30T04:10:28;23.20;;;10.65;;
21014;SDS011;19207;-23.482;-46.500;2023-09-30T04:13:15;30.58;;;11.43;;
21014;SDS011;19207;-23.482;-46.500;2023-09-30T04:16:02;23.40;;;11.30;;
21014;SDS011;19207;-23.482;-46.500;2023-09-30T04:18:49;27.73;;;11.00;;
21014;SDS011;19207;-23.482;-46.500;2023-09-30T04:21:37;39.40;;;11.48;;
21014;SDS011;19207;-23.482;-46.500;2023-09-30T04:24:24;32.40;;;11.82;;
21014;SDS011;19207;-23.482;-46.500;2023-09-30T04:27:10;25.45;;;11.50;;
21014;SDS011;19207;-23.482;-46.500;2023-09-30T04:29:57;25.67;;;10.93;;
21014;SDS011;19207;-23.482;-46.500;2023-09-30T04:32:44;31.30;;;10.88;;
21014;SDS011;19207;-23.482;-46.500;2023-09-30T04:35:31;31.08;;;11.40;;
21014;SDS011;19207;-23.482;-46.500;2023-09-30T04:38:20;30.70;;;11.80;;
21014;SDS011;19207;-23.482;-46.500;2023-09-30T04:41:07;36.35;;;11.85;;
21014;SDS011;19207;-23.482;-46.500;2023-09-30T04:43:53;36.97;;;12.27;;
21014;SDS011;19207;-23.482;-46.500;2023-09-30T04:46:40;30.73;;;12.05;;
21014;SDS011;19207;-23.482;-46.500;2023-09-30T04:49:31;40.12;;;11.85;;
21014;SDS011;19207;-23.482;-46.500;2023-09-30T04:52:18;35.40;;;13.20;;
21014;SDS011;19207;-23.482;-46.500;2023-09-30T04:55:05;38.38;;;13.23;;
21014;SDS011;19207;-23.482;-46.500;2023-09-30T04:57:53;33.28;;;12.20;;
21014;SDS011;19207;-23.482;-46.500;2023-09-30T05:00:40;36.08;;;12.57;;
21014;SDS011;19207;-23.482;-46.500;2023-09-30T05:03:27;24.35;;;11.98;;
21014;SDS011;19207;-23.482;-46.500;2023-09-30T05:06:13;30.55;;;12.50;;
21014;SDS011;19207;-23.482;-46.500;2023-09-30T05:09:00;33.35;;;12.82;;
21014;SDS011;19207;-23.482;-46.500;2023-09-30T05:11:47;34.33;;;14.50;;
21014;SDS011;19207;-23.482;-46.500;2023-09-30T05:14:34;33.03;;;14.95;;
21014;SDS011;19207;-23.482;-46.500;2023-09-30T05:17:22;37.58;;;14.27;;
21014;SDS011;19207;-23.482;-46.500;2023-09-30T05:20:08;31.70;;;12.43;;
21014;SDS011;19207;-23.482;-46.500;2023-09-30T05:22:59;30.83;;;11.68;;
21014;SDS011;19207;-23.482;-46.500;2023-09-30T05:25:46;36.65;;;12.50;;
21014;SDS011;19207;-23.482;-46.500;2023-09-30T05:28:33;25.95;;;11.32;;
21014;SDS011;19207;-23.482;-46.500;2023-09-30T05:31:19;21.08;;;10.68;;
21014;SDS011;19207;-23.482;-46.500;2023-09-30T05:34:06;24.90;;;11.18;;
21014;SDS011;19207;-23.482;-46.500;2023-09-30T05:36:53;27.75;;;11.90;;
21014;SDS011;19207;-23.482;-46.500;2023-09-30T05:39:39;24.42;;;10.63;;
21014;SDS011;19207;-23.482;-46.500;2023-09-30T05:42:26;31.70;;;12.07;;
21014;SDS011;19207;-23.482;-46.500;2023-09-30T05:45:12;24.35;;;11.40;;
21014;SDS011;19207;-23.482;-46.500;2023-09-30T05:48:01;31.42;;;11.20;;
21014;SDS011;19207;-23.482;-46.500;2023-09-30T05:50:51;28.12;;;10.82;;
21014;SDS011;19207;-23.482;-46.500;2023-09-30T05:53:37;22.60;;;11.48;;
21014;SDS011;19207;-23.482;-46.500;2023-09-30T05:56:24;29.23;;;11.30;;
21014;SDS011;19207;-23.482;-46.500;2023-09-30T05:59:12;22.17;;;10.90;;
21014;SDS011;19207;-23.482;-46.500;2023-09-30T06:01:58;27.27;;;11.05;;
21014;SDS011;19207;-23.482;-46.500;2023-09-30T06:04:45;25.67;;;11.80;;
21014;SDS011;19207;-23.482;-46.500;2023-09-30T06:07:32;29.95;;;12.23;;
21014;SDS011;19207;-23.482;-46.500;2023-09-30T06:10:19;21.27;;;11.70;;
21014;SDS011;19207;-23.482;-46.500;2023-09-30T06:13:06;34.97;;;13.48;;
21014;SDS011;19207;-23.482;-46.500;2023-09-30T06:15:53;27.73;;;13.70;;
21014;SDS011;19207;-23.482;-46.500;2023-09-30T06:18:39;28.87;;;13.95;;
21014;SDS011;19207;-23.482;-46.500;2023-09-30T06:21:27;31.50;;;13.55;;
21014;SDS011;19207;-23.482;-46.500;2023-09-30T06:24:14;32.67;;;13.73;;
21014;SDS011;19207;-23.482;-46.500;2023-09-30T06:27:00;34.42;;;20.95;;
21014;SDS011;19207;-23.482;-46.500;2023-09-30T06:29:48;31.90;;;14.80;;
21014;SDS011;19207;-23.482;-46.500;2023-09-30T06:32:34;30.23;;;13.60;;
21014;SDS011;19207;-23.482;-46.500;2023-09-30T06:35:21;29.87;;;14.98;;
21014;SDS011;19207;-23.482;-46.500;2023-09-30T06:38:08;30.02;;;15.05;;
21014;SDS011;19207;-23.482;-46.500;2023-09-30T06:40:55;29.05;;;13.95;;
21014;SDS011;19207;-23.482;-46.500;2023-09-30T06:43:42;28.87;;;14.23;;
21014;SDS011;19207;-23.482;-46.500;2023-09-30T06:46:28;33.17;;;14.32;;
21014;SDS011;19207;-23.482;-46.500;2023-09-30T06:49:15;33.45;;;13.82;;
21014;SDS011;19207;-23.482;-46.500;2023-09-30T06:52:02;29.67;;;13.68;;
21014;SDS011;19207;-23.482;-46.500;2023-09-30T06:54:49;29.58;;;13.82;;
21014;SDS011;19207;-23.482;-46.500;2023-09-30T06:57:37;27.08;;;13.65;;
21014;SDS011;19207;-23.482;-46.500;2023-09-30T07:00:25;29.05;;;14.25;;
21014;SDS011;19207;-23.482;-46.500;2023-09-30T07:03:12;29.73;;;13.77;;
21014;SDS011;19207;-23.482;-46.500;2023-09-30T07:06:00;26.15;;;11.77;;
21014;SDS011;19207;-23.482;-46.500;2023-09-30T07:08:48;32.33;;;13.05;;
21014;SDS011;19207;-23.482;-46.500;2023-09-30T07:11:35;37.53;;;13.23;;
21014;SDS011;19207;-23.482;-46.500;2023-09-30T07:14:22;30.33;;;14.45;;
21014;SDS011;19207;-23.482;-46.500;2023-09-30T07:17:09;30.52;;;14.82;;
21014;SDS011;19207;-23.482;-46.500;2023-09-30T07:19:56;36.42;;;15.43;;
21014;SDS011;19207;-23.482;-46.500;2023-09-30T07:22:42;37.42;;;14.13;;
21014;SDS011;19207;-23.482;-46.500;2023-09-30T07:25:31;30.23;;;14.25;;
21014;SDS011;19207;-23.482;-46.500;2023-09-30T07:28:17;31.08;;;13.68;;
21014;SDS011;19207;-23.482;-46.500;2023-09-30T07:31:04;30.17;;;12.82;;
21014;SDS011;19207;-23.482;-46.500;2023-09-30T07:33:51;29.75;;;13.50;;
21014;SDS011;19207;-23.482;-46.500;2023-09-30T07:36:38;31.25;;;14.20;;
21014;SDS011;19207;-23.482;-46.500;2023-09-30T07:39:25;24.05;;;12.88;;
21014;SDS011;19207;-23.482;-46.500;2023-09-30T07:42:12;30.23;;;13.27;;
21014;SDS011;19207;-23.482;-46.500;2023-09-30T07:44:59;29.60;;;13.60;;
21014;SDS011;19207;-23.482;-46.500;2023-09-30T07:47:46;32.20;;;13.48;;
21014;SDS011;19207;-23.482;-46.500;2023-09-30T07:50:34;29.65;;;13.70;;
21014;SDS011;19207;-23.482;-46.500;2023-09-30T07:53:21;34.22;;;14.63;;
21014;SDS011;19207;-23.482;-46.500;2023-09-30T07:56:08;36.88;;;15.88;;
21014;SDS011;19207;-23.482;-46.500;2023-09-30T07:58:54;44.42;;;19.58;;
21014;SDS011;19207;-23.482;-46.500;2023-09-30T08:01:42;42.62;;;17.83;;
21014;SDS011;19207;-23.482;-46.500;2023-09-30T08:04:29;44.58;;;16.67;;
21014;SDS011;19207;-23.482;-46.500;2023-09-30T08:07:16;40.80;;;17.10;;
21014;SDS011;19207;-23.482;-46.500;2023-09-30T08:10:03;38.25;;;16.25;;
21014;SDS011;19207;-23.482;-46.500;2023-09-30T08:12:50;35.90;;;16.50;;
21014;SDS011;19207;-23.482;-46.500;2023-09-30T08:15:37;40.83;;;17.08;;
21014;SDS011;19207;-23.482;-46.500;2023-09-30T08:18:24;41.13;;;17.15;;
21014;SDS011;19207;-23.482;-46.500;2023-09-30T08:21:11;45.67;;;17.35;;
21014;SDS011;19207;-23.482;-46.500;2023-09-30T08:23:59;38.65;;;16.87;;
21014;SDS011;19207;-23.482;-46.500;2023-09-30T08:26:46;39.42;;;17.65;;
21014;SDS011;19207;-23.482;-46.500;2023-09-30T08:29:34;43.80;;;17.12;;
21014;SDS011;19207;-23.482;-46.500;2023-09-30T08:32:24;41.90;;;18.30;;
21014;SDS011;19207;-23.482;-46.500;2023-09-30T08:35:10;42.70;;;18.12;;
21014;SDS011;19207;-23.482;-46.500;2023-09-30T08:37:59;39.85;;;18.62;;
21014;SDS011;19207;-23.482;-46.500;2023-09-30T08:40:49;43.50;;;19.40;;
21014;SDS011;19207;-23.482;-46.500;2023-09-30T08:43:38;43.13;;;17.90;;
21014;SDS011;19207;-23.482;-46.500;2023-09-30T08:46:25;44.97;;;17.45;;
21014;SDS011;19207;-23.482;-46.500;2023-09-30T08:49:12;40.97;;;17.87;;
21014;SDS011;19207;-23.482;-46.500;2023-09-30T08:52:00;35.33;;;17.02;;
21014;SDS011;19207;-23.482;-46.500;2023-09-30T08:54:48;32.47;;;16.30;;
21014;SDS011;19207;-23.482;-46.500;2023-09-30T08:57:40;33.20;;;15.60;;
21014;SDS011;19207;-23.482;-46.500;2023-09-30T09:00:26;31.67;;;15.55;;
21014;SDS011;19207;-23.482;-46.500;2023-09-30T09:03:13;34.17;;;15.82;;
21014;SDS011;19207;-23.482;-46.500;2023-09-30T09:06:00;43.58;;;16.75;;
21014;SDS011;19207;-23.482;-46.500;2023-09-30T09:08:47;35.15;;;16.08;;
21014;SDS011;19207;-23.482;-46.500;2023-09-30T09:11:36;36.80;;;15.85;;
21014;SDS011;19207;-23.482;-46.500;2023-09-30T09:14:39;42.90;;;17.65;;
21014;SDS011;19207;-23.482;-46.500;2023-09-30T09:17:47;38.15;;;17.80;;
21014;SDS011;19207;-23.482;-46.500;2023-09-30T09:20:35;35.80;;;16.90;;
21014;SDS011;19207;-23.482;-46.500;2023-09-30T09:23:23;42.40;;;18.48;;
21014;SDS011;19207;-23.482;-46.500;2023-09-30T09:26:26;42.20;;;18.95;;
21014;SDS011;19207;-23.482;-46.500;2023-09-30T09:29:14;46.28;;;19.15;;
21014;SDS011;19207;-23.482;-46.500;2023-09-30T09:32:07;49.85;;;18.48;;
21014;SDS011;19207;-23.482;-46.500;2023-09-30T09:34:59;44.72;;;18.55;;
21014;SDS011;19207;-23.482;-46.500;2023-09-30T09:38:00;43.30;;;18.00;;
21014;SDS011;19207;-23.482;-46.500;2023-09-30T09:40:46;35.47;;;16.67;;
21014;SDS011;19207;-23.482;-46.500;2023-09-30T09:43:33;35.35;;;16.02;;
21014;SDS011;19207;-23.482;-46.500;2023-09-30T09:46:20;35.55;;;15.82;;
21014;SDS011;19207;-23.482;-46.500;2023-09-30T09:49:07;33.90;;;15.10;;
21014;SDS011;19207;-23.482;-46.500;2023-09-30T09:51:55;38.03;;;16.23;;
21014;SDS011;19207;-23.482;-46.500;2023-09-30T09:54:43;35.83;;;16.52;;
21014;SDS011;19207;-23.482;-46.500;2023-09-30T09:57:30;31.80;;;14.40;;
21014;SDS011;19207;-23.482;-46.500;2023-09-30T10:00:19;27.67;;;14.30;;
21014;SDS011;19207;-23.482;-46.500;2023-09-30T10:03:05;35.63;;;15.05;;
21014;SDS011;19207;-23.482;-46.500;2023-09-30T10:05:53;32.55;;;14.60;;
21014;SDS011;19207;-23.482;-46.500;2023-09-30T10:08:40;31.48;;;14.30;;
21014;SDS011;19207;-23.482;-46.500;2023-09-30T10:11:28;27.77;;;13.40;;
21014;SDS011;19207;-23.482;-46.500;2023-09-30T10:14:31;28.67;;;14.70;;
21014;SDS011;19207;-23.482;-46.500;2023-09-30T10:17:18;28.67;;;14.52;;
21014;SDS011;19207;-23.482;-46.500;2023-09-30T10:20:05;30.52;;;14.00;;
21014;SDS011;19207;-23.482;-46.500;2023-09-30T10:28:59;28.08;;;15.02;;
21014;SDS011;19207;-23.482;-46.500;2023-09-30T10:31:55;28.67;;;15.00;;
21014;SDS011;19207;-23.482;-46.500;2023-09-30T10:34:49;32.47;;;15.30;;
21014;SDS011;19207;-23.482;-46.500;2023-09-30T10:37:38;34.97;;;16.60;;
21014;SDS011;19207;-23.482;-46.500;2023-09-30T10:40:28;34.42;;;15.07;;
21014;SDS011;19207;-23.482;-46.500;2023-09-30T10:46:34;32.75;;;14.80;;
21014;SDS011;19207;-23.482;-46.500;2023-09-30T10:52:10;41.80;;;15.63;;
21014;SDS011;19207;-23.482;-46.500;2023-09-30T10:55:04;34.30;;;15.30;;
21014;SDS011;19207;-23.482;-46.500;2023-09-30T10:57:52;42.88;;;17.40;;
21014;SDS011;19207;-23.482;-46.500;2023-09-30T11:00:39;40.25;;;14.57;;
21014;SDS011;19207;-23.482;-46.500;2023-09-30T11:03:28;39.28;;;16.35;;
21014;SDS011;19207;-23.482;-46.500;2023-09-30T11:06:16;34.92;;;14.35;;
21014;SDS011;19207;-23.482;-46.500;2023-09-30T11:09:04;36.90;;;14.35;;
21014;SDS011;19207;-23.482;-46.500;2023-09-30T11:11:54;35.30;;;14.80;;
21014;SDS011;19207;-23.482;-46.500;2023-09-30T11:14:41;33.80;;;14.85;;
21014;SDS011;19207;-23.482;-46.500;2023-09-30T11:17:27;31.33;;;14.82;;
21014;SDS011;19207;-23.482;-46.500;2023-09-30T11:20:16;34.25;;;16.10;;
21014;SDS011;19207;-23.482;-46.500;2023-09-30T11:23:03;38.67;;;16.12;;
21014;SDS011;19207;-23.482;-46.500;2023-09-30T11:25:51;33.35;;;14.80;;
21014;SDS011;19207;-23.482;-46.500;2023-09-30T11:28:41;41.33;;;15.75;;
21014;SDS011;19207;-23.482;-46.500;2023-09-30T11:31:28;32.70;;;14.05;;
21014;SDS011;19207;-23.482;-46.500;2023-09-30T11:34:20;34.83;;;14.20;;
21014;SDS011;19207;-23.482;-46.500;2023-09-30T11:37:17;26.33;;;13.02;;
21014;SDS011;19207;-23.482;-46.500;2023-09-30T11:40:11;28.77;;;13.48;;
21014;SDS011;19207;-23.482;-46.500;2023-09-30T11:43:08;31.00;;;13.20;;
21014;SDS011;19207;-23.482;-46.500;2023-09-30T11:46:07;29.60;;;12.27;;
21014;SDS011;19207;-23.482;-46.500;2023-09-30T11:48:57;28.95;;;14.00;;
21014;SDS011;19207;-23.482;-46.500;2023-09-30T11:51:44;24.87;;;11.70;;
21014;SDS011;19207;-23.482;-46.500;2023-09-30T11:54:33;22.67;;;11.90;;
21014;SDS011;19207;-23.482;-46.500;2023-09-30T11:57:22;24.77;;;12.48;;
21014;SDS011;19207;-23.482;-46.500;2023-09-30T12:00:09;29.12;;;12.20;;
21014;SDS011;19207;-23.482;-46.500;2023-09-30T12:02:59;23.75;;;11.15;;
21014;SDS011;19207;-23.482;-46.500;2023-09-30T12:05:45;22.52;;;11.25;;
21014;SDS011;19207;-23.482;-46.500;2023-09-30T12:08:33;24.00;;;11.88;;
21014;SDS011;19207;-23.482;-46.500;2023-09-30T12:11:19;28.77;;;12.25;;
21014;SDS011;19207;-23.482;-46.500;2023-09-30T12:14:09;23.50;;;11.95;;
21014;SDS011;19207;-23.482;-46.500;2023-09-30T12:16:56;23.20;;;11.88;;
21014;SDS011;19207;-23.482;-46.500;2023-09-30T12:19:43;26.73;;;12.32;;
21014;SDS011;19207;-23.482;-46.500;2023-09-30T12:22:31;21.02;;;11.63;;
21014;SDS011;19207;-23.482;-46.500;2023-09-30T12:25:18;27.33;;;13.00;;
21014;SDS011;19207;-23.482;-46.500;2023-09-30T12:28:06;30.50;;;13.02;;
21014;SDS011;19207;-23.482;-46.500;2023-09-30T12:30:53;32.53;;;12.48;;
21014;SDS011;19207;-23.482;-46.500;2023-09-30T12:33:40;25.20;;;12.68;;
21014;SDS011;19207;-23.482;-46.500;2023-09-30T12:36:27;27.60;;;13.25;;
21014;SDS011;19207;-23.482;-46.500;2023-09-30T12:39:14;24.05;;;12.57;;
21014;SDS011;19207;-23.482;-46.500;2023-09-30T12:42:02;25.25;;;12.45;;
21014;SDS011;19207;-23.482;-46.500;2023-09-30T12:44:54;26.37;;;12.52;;
21014;SDS011;19207;-23.482;-46.500;2023-09-30T12:47:40;25.00;;;12.40;;
21014;SDS011;19207;-23.482;-46.500;2023-09-30T12:50:27;19.95;;;12.07;;
21014;SDS011;19207;-23.482;-46.500;2023-09-30T12:53:14;29.95;;;13.13;;
21014;SDS011;19207;-23.482;-46.500;2023-09-30T12:56:01;33.47;;;14.07;;
21014;SDS011;19207;-23.482;-46.500;2023-09-30T12:58:48;27.42;;;14.10;;
21014;SDS011;19207;-23.482;-46.500;2023-09-30T13:01:35;25.25;;;12.57;;
21014;SDS011;19207;-23.482;-46.500;2023-09-30T13:04:22;26.77;;;14.27;;
21014;SDS011;19207;-23.482;-46.500;2023-09-30T13:07:11;25.48;;;13.05;;
21014;SDS011;19207;-23.482;-46.500;2023-09-30T13:09:58;33.88;;;15.23;;
21014;SDS011;19207;-23.482;-46.500;2023-09-30T13:12:50;30.62;;;14.95;;
21014;SDS011;19207;-23.482;-46.500;2023-09-30T13:15:39;29.67;;;14.57;;
21014;SDS011;19207;-23.482;-46.500;2023-09-30T13:18:25;28.33;;;14.27;;
21014;SDS011;19207;-23.482;-46.500;2023-09-30T13:21:12;31.55;;;14.02;;
21014;SDS011;19207;-23.482;-46.500;2023-09-30T13:23:59;39.90;;;17.48;;
21014;SDS011;19207;-23.482;-46.500;2023-09-30T13:26:46;32.42;;;16.90;;
21014;SDS011;19207;-23.482;-46.500;2023-09-30T13:29:34;31.05;;;15.27;;
21014;SDS011;19207;-23.482;-46.500;2023-09-30T13:32:20;27.95;;;15.32;;
21014;SDS011;19207;-23.482;-46.500;2023-09-30T13:35:07;33.85;;;15.60;;
21014;SDS011;19207;-23.482;-46.500;2023-09-30T13:37:54;35.28;;;15.45;;
21014;SDS011;19207;-23.482;-46.500;2023-09-30T13:40:41;30.48;;;15.52;;
21014;SDS011;19207;-23.482;-46.500;2023-09-30T13:43:28;34.88;;;15.38;;
21014;SDS011;19207;-23.482;-46.500;2023-09-30T13:46:14;31.37;;;14.65;;
21014;SDS011;19207;-23.482;-46.500;2023-09-30T13:49:01;28.67;;;14.65;;
21014;SDS011;19207;-23.482;-46.500;2023-09-30T13:51:52;30.70;;;14.60;;
21014;SDS011;19207;-23.482;-46.500;2023-09-30T13:54:39;28.73;;;15.50;;
21014;SDS011;19207;-23.482;-46.500;2023-09-30T13:57:26;32.85;;;16.85;;
21014;SDS011;19207;-23.482;-46.500;2023-09-30T14:00:13;38.03;;;18.25;;
21014;SDS011;19207;-23.482;-46.500;2023-09-30T14:03:01;39.40;;;19.37;;
21014;SDS011;19207;-23.482;-46.500;2023-09-30T14:05:48;34.03;;;18.05;;
21014;SDS011;19207;-23.482;-46.500;2023-09-30T14:08:35;39.40;;;19.83;;
21014;SDS011;19207;-23.482;-46.500;2023-09-30T14:11:22;36.58;;;18.90;;
21014;SDS011;19207;-23.482;-46.500;2023-09-30T14:14:08;43.33;;;17.85;;
21014;SDS011;19207;-23.482;-46.500;2023-09-30T14:16:55;31.55;;;17.83;;
21014;SDS011;19207;-23.482;-46.500;2023-09-30T14:19:42;40.88;;;18.85;;
21014;SDS011;19207;-23.482;-46.500;2023-09-30T14:22:29;38.58;;;17.40;;
21014;SDS011;19207;-23.482;-46.500;2023-09-30T14:25:16;38.83;;;18.65;;
21014;SDS011;19207;-23.482;-46.500;2023-09-30T14:28:03;33.97;;;17.52;;
21014;SDS011;19207;-23.482;-46.500;2023-09-30T14:30:50;39.83;;;21.12;;
21014;SDS011;19207;-23.482;-46.500;2023-09-30T14:33:37;35.42;;;19.73;;
21014;SDS011;19207;-23.482;-46.500;2023-09-30T14:36:24;37.65;;;20.62;;
21014;SDS011;19207;-23.482;-46.500;2023-09-30T14:39:11;39.80;;;20.70;;
21014;SDS011;19207;-23.482;-46.500;2023-09-30T14:41:58;35.70;;;19.27;;
21014;SDS011;19207;-23.482;-46.500;2023-09-30T14:44:44;36.63;;;19.02;;
21014;SDS011;19207;-23.482;-46.500;2023-09-30T14:47:31;39.55;;;19.75;;
21014;SDS011;19207;-23.482;-46.500;2023-09-30T14:50:18;39.83;;;18.58;;
21014;SDS011;19207;-23.482;-46.500;2023-09-30T14:53:06;39.78;;;18.42;;
21014;SDS011;19207;-23.482;-46.500;2023-09-30T14:55:52;38.78;;;19.75;;
21014;SDS011;19207;-23.482;-46.500;2023-09-30T14:58:39;39.30;;;19.85;;
21014;SDS011;19207;-23.482;-46.500;2023-09-30T15:01:25;35.53;;;18.80;;
21014;SDS011;19207;-23.482;-46.500;2023-09-30T15:04:17;38.35;;;19.23;;
21014;SDS011;19207;-23.482;-46.500;2023-09-30T15:07:05;35.47;;;18.75;;
21014;SDS011;19207;-23.482;-46.500;2023-09-30T15:09:51;37.25;;;18.80;;
21014;SDS011;19207;-23.482;-46.500;2023-09-30T15:12:39;36.88;;;19.80;;
21014;SDS011;19207;-23.482;-46.500;2023-09-30T15:15:26;38.17;;;17.40;;
21014;SDS011;19207;-23.482;-46.500;2023-09-30T15:18:13;41.40;;;17.83;;
21014;SDS011;19207;-23.482;-46.500;2023-09-30T15:21:00;30.35;;;18.12;;
21014;SDS011;19207;-23.482;-46.500;2023-09-30T15:23:49;41.95;;;19.17;;
21014;SDS011;19207;-23.482;-46.500;2023-09-30T15:26:35;29.25;;;16.42;;
21014;SDS011;19207;-23.482;-46.500;2023-09-30T15:29:22;37.70;;;17.45;;
21014;SDS011;19207;-23.482;-46.500;2023-09-30T15:32:08;29.87;;;17.17;;
21014;SDS011;19207;-23.482;-46.500;2023-09-30T15:34:55;27.62;;;16.65;;
21014;SDS011;19207;-23.482;-46.500;2023-09-30T15:37:41;32.53;;;17.12;;
21014;SDS011;19207;-23.482;-46.500;2023-09-30T15:40:29;27.35;;;16.35;;
21014;SDS011;19207;-23.482;-46.500;2023-09-30T15:43:17;32.03;;;18.23;;
21014;SDS011;19207;-23.482;-46.500;2023-09-30T15:46:04;30.75;;;17.60;;
21014;SDS011;19207;-23.482;-46.500;2023-09-30T15:48:51;32.13;;;17.87;;
21014;SDS011;19207;-23.482;-46.500;2023-09-30T15:51:38;27.95;;;17.90;;
21014;SDS011;19207;-23.482;-46.500;2023-09-30T15:54:24;35.35;;;18.90;;